Shashi, China
Current Conditions -  °F | °C
As of 1:00 AM on Wednesday 28 Jan 2015 (Local Time) from ZHHH Reporting Station
Ice Pellets Ice Pellets  
Wind Chill: 23°   Ceiling: 3300
Heat Index: 32°   Visibility: 2.5mi
Dew Point: 30°   Wind: 11mph
Humidity: 93%   Direction: 50°NE
Pressure: 30.36"   Gusts: NA
Location:  30.32°N, 112.23°E
Report Text: ZHHH 271700Z 05005MPS 010V070 4000 -PLRA BR SCT008OVC033M00/M01 Q1028 NOSIG
Loading
Personal Weather Stations






























Interactive Weather Map New forecast layout! Learn more

10-Day Weather Forecast

Advertisements
Track Severe Weather on mobile